Indianapolis International Airport
KIND : now visible

Airfield :











YOU CAN JOIN US ON...

 
LOGIN :

Register | Disclaimer

   EN    FR    IT 

 









Legend :    VFR   Marginal VFR   IFR   Intensive IFR   Very Intensive IFR
Visi :
Ceiling :
>= 8 km
>= 3000ft
5 to 8 km
1000 to 3000 ft
1500m to 5 km
500 to 1000 ft
800 to 1500m
200 to 500 ft
< 800m
< 200 ft
Symbols :   Thunderstorms  Fog  Heavy snow  Heavy precipitations  Wind > 20 kt






- Airport Elevation : 797 ft
- IATA code : IND


KIND - Indianapolis International

CURRENT METAR :
  • 270454Z 30014KT 9SM -SN BKN022 BKN026 OVC045 M03/M07 A3009 RMK AO2 SNB15 SLP196 P0000 T10281067 400221028

EXPIRED METARs :
  • 270412Z 31013G25KT 10SM SCT022 OVC049 M03/M06 A3008 RMK AO2 T10281061
  • 270354Z 30018G25KT 10SM BKN021 OVC045 M02/M06 A3008 RMK AO2 PK WND 30027/0314 SNE14 SLP193 P0000 T10221061
  • 270315Z 31020G27KT 9SM SCT021 OVC035 M02/M06 A3007 RMK AO2 PK WND 30027/0314 SNE14 P0000 T10221056
  • 270254Z 32018G26KT 6SM -SN BR BKN018 OVC040 M02/M05 A3006 RMK AO2 PK WND 30027/0237 SLP188 P0000 60000 T10221050 51018
  • 270228Z 31014KT 7SM -SN BKN020 OVC040 M02/M04 A3006 RMK AO2 P0000 T10171044
  • 270219Z 31013KT 2SM R05L/6000VP6000FT -SN BR BKN020 OVC040 M02/M04 A3005 RMK AO2 P0000 T10171044

TAF KIND
Valid from the 27 at 02:00 until the 28 at 06:00 UTC


270224Z 2702/2806 32016G24KT P6SM VCSH BKN025 OVC040
TEMPO 2702/2705 4SM -SN
FM270800 30013G18KT P6SM SCT025 OVC040
FM271200 29011KT P6SM BKN024
FM271600 28013KT P6SM BKN050
FM272200 27012KT P6SM BKN060



MET'MAP, your aeronautical weather chart ! - Copyright ORBIFLY December 2007 - Disclaimer

ORBIFLY MET'MAP TEAM :

Programming & Development : Alexandra Zaïnal
Concept & original design : Baudouin d'Aumeries
Assistance for programming : Marc-Olivier Méhu
Technical & hardware support : Manuel Goepfert

Contact : metmap@orbifly.com




SOURCES & CREDITS :

   NOAA       Earth
Advisory